HISTORICAL SENSOR DATA

Sensor Data Report

DB LIVE
CURRENT TIME--:--:--
DEVICE NETWORK Gateway Status
13 ESP · realtime ~1s · history 60s
Weather WS-MOD-01
ONLINE
Actuator ACT-MOD-01
OFFLINE
Mainboard L3 MB-L3-01
ONLINE
Mainboard L5 MB-L5-01
ONLINE
Remote AC AC-REMOTE-01
ONLINE
PZEM L3-01 PWR-L3-01
OFFLINE
PZEM L3-02 PWR-L3-02
OFFLINE
PZEM L3-03 PWR-L3-03
OFFLINE
PZEM L3-04 PWR-L3-04
OFFLINE
PZEM L5-01 PWR-L5-01
ONLINE
PZEM L5-02 PWR-L5-02
ONLINE
PZEM L5-03 PWR-L5-03
OFFLINE
PZEM L5-04 PWR-L5-04
OFFLINE
REPORT FILTER

Periode & Sensor

DATABASE HISTORY
RESET
QUICK RANGE Hari ini 7 hari 30 hari
PERIODE28 Aug 2026sampai 03 Sep 2026
TOTAL DATA40,294sensor readings
MINIMUM-0.50sesuai filter
AVERAGE56.76sesuai filter
MAXIMUM998.00sesuai filter
REPORT RESULT

Data Sensor

28/08/2026 — 03/09/2026 EXPORT CSV
NOTANGGALWAKTUDEVICECHANNELSENSORVALUEUNIT
12301 02/09/2026 14:54:29 MB-L5-01Mainboard Lantai 5 L5-AI-04 Analog Input 4 3.05 V
12302 02/09/2026 14:54:29 MB-L3-01Mainboard Lantai 3 L3-ST-01 Surface Temperature 1 29.90 °C
12303 02/09/2026 14:54:29 MB-L3-01Mainboard Lantai 3 L3-AI-05 Analog Input 5 3.12 V
12304 02/09/2026 14:54:29 MB-L3-01Mainboard Lantai 3 L3-SHT-03-T SHT20 3 Temperature 31.80 °C
12305 02/09/2026 14:54:29 MB-L5-01Mainboard Lantai 5 L5-RAD-01 Radiation 1 2.00 W/m²
12306 02/09/2026 14:54:29 MB-L5-01Mainboard Lantai 5 L5-AI-03 Analog Input 3 3.05 V
12307 02/09/2026 14:54:29 MB-L3-01Mainboard Lantai 3 L3-SHT-02-T SHT20 2 Temperature 32.00 °C
12308 02/09/2026 14:54:27 MB-L5-01Mainboard Lantai 5 L5-BGT-03 Black Globe Temperature 3 30.00 °C
12309 02/09/2026 14:54:27 MB-L3-01Mainboard Lantai 3 L3-HFT-01 Heat Flow Temperature 1 29.70 °C
12310 02/09/2026 14:54:27 MB-L5-01Mainboard Lantai 5 L5-LUX-03 Illuminance / LUX 3 235.40 lux
12311 02/09/2026 14:54:27 MB-L5-01Mainboard Lantai 5 L5-BGT-02 Black Globe Temperature 2 29.90 °C
12312 02/09/2026 14:54:27 MB-L5-01Mainboard Lantai 5 L5-BGT-01 Black Globe Temperature 1 29.90 °C
12313 02/09/2026 14:54:27 MB-L3-01Mainboard Lantai 3 L3-AI-02 Analog Input 2 3.12 V
12314 02/09/2026 14:54:27 MB-L3-01Mainboard Lantai 3 L3-LUX-04 Illuminance / LUX 4 87.30 lux
12315 02/09/2026 14:54:27 MB-L5-01Mainboard Lantai 5 L5-HFT-02 Heat Flow Temperature 2 30.20 °C
12316 02/09/2026 14:54:27 MB-L5-01Mainboard Lantai 5 L5-SHT-01-RH SHT20 1 Humidity 48.30 %RH
12317 02/09/2026 14:54:27 MB-L3-01Mainboard Lantai 3 L3-HFT-02 Heat Flow Temperature 2 29.10 °C
12318 02/09/2026 14:54:27 MB-L3-01Mainboard Lantai 3 L3-SHT-01-T SHT20 1 Temperature 32.10 °C
12319 02/09/2026 14:54:27 MB-L5-01Mainboard Lantai 5 L5-HFT-01 Heat Flow Temperature 1 30.40 °C
12320 02/09/2026 14:54:27 MB-L5-01Mainboard Lantai 5 L5-LUX-01 Illuminance / LUX 1 289.00 lux
12321 02/09/2026 14:54:27 MB-L5-01Mainboard Lantai 5 L5-LUX-06 Illuminance / LUX 6 344.80 lux
12322 02/09/2026 14:54:27 MB-L5-01Mainboard Lantai 5 L5-ST-02 Surface Temperature 2 30.50 °C
12323 02/09/2026 14:54:27 MB-L3-01Mainboard Lantai 3 L3-LUX-02 Illuminance / LUX 2 47.80 lux
12324 02/09/2026 14:54:27 MB-L3-01Mainboard Lantai 3 L3-SHT-01-RH SHT20 1 Humidity 48.70 %RH
12325 02/09/2026 14:54:27 MB-L3-01Mainboard Lantai 3 L3-AI-03 Analog Input 3 3.12 V
12326 02/09/2026 14:54:27 MB-L5-01Mainboard Lantai 5 L5-LUX-02 Illuminance / LUX 2 244.10 lux
12327 02/09/2026 14:54:27 MB-L5-01Mainboard Lantai 5 L5-ST-01 Surface Temperature 1 30.30 °C
12328 02/09/2026 14:54:27 MB-L3-01Mainboard Lantai 3 L3-SHT-02-RH SHT20 2 Humidity 48.40 %RH
12329 02/09/2026 14:54:27 MB-L3-01Mainboard Lantai 3 L3-BGT-01 Black Globe Temperature 1 29.70 °C
12330 02/09/2026 14:54:27 MB-L5-01Mainboard Lantai 5 L5-RAD-02 Radiation 2 2.00 W/m²
12331 02/09/2026 14:54:27 MB-L3-01Mainboard Lantai 3 L3-LUX-01 Illuminance / LUX 1 29.80 lux
12332 02/09/2026 14:54:27 MB-L3-01Mainboard Lantai 3 L3-RAD-02 Radiation 2 2.00 W/m²
12333 02/09/2026 14:54:27 MB-L5-01Mainboard Lantai 5 L5-AI-06 Analog Input 6 3.05 V
12334 02/09/2026 14:54:27 MB-L3-01Mainboard Lantai 3 L3-LUX-03 Illuminance / LUX 3 165.50 lux
12335 02/09/2026 14:54:27 MB-L5-01Mainboard Lantai 5 L5-SHT-02-RH SHT20 2 Humidity 48.30 %RH
12336 02/09/2026 14:54:27 MB-L3-01Mainboard Lantai 3 L3-AI-04 Analog Input 4 3.12 V
12337 02/09/2026 14:54:27 MB-L5-01Mainboard Lantai 5 L5-LUX-04 Illuminance / LUX 4 343.20 lux
12338 02/09/2026 14:54:27 MB-L3-01Mainboard Lantai 3 L3-BGT-02 Black Globe Temperature 2 29.80 °C
12339 02/09/2026 14:54:27 MB-L3-01Mainboard Lantai 3 L3-RAD-01 Radiation 1 2.00 W/m²
12340 02/09/2026 14:54:27 MB-L5-01Mainboard Lantai 5 L5-AI-05 Analog Input 5 3.05 V
12341 02/09/2026 14:54:27 MB-L5-01Mainboard Lantai 5 L5-SHT-03-T SHT20 3 Temperature 32.30 °C
12342 02/09/2026 14:54:27 MB-L5-01Mainboard Lantai 5 L5-SHT-01-T SHT20 1 Temperature 32.30 °C
12343 02/09/2026 14:54:27 MB-L3-01Mainboard Lantai 3 L3-SHT-03-RH SHT20 3 Humidity 49.10 %RH
12344 02/09/2026 14:54:27 MB-L5-01Mainboard Lantai 5 L5-SHT-02-T SHT20 2 Temperature 32.20 °C
12345 02/09/2026 14:54:27 MB-L5-01Mainboard Lantai 5 L5-SHT-03-RH SHT20 3 Humidity 48.70 %RH
12346 02/09/2026 14:54:27 MB-L5-01Mainboard Lantai 5 L5-AI-04 Analog Input 4 3.05 V
12347 02/09/2026 14:54:27 MB-L3-01Mainboard Lantai 3 L3-ST-01 Surface Temperature 1 29.90 °C
12348 02/09/2026 14:54:27 MB-L3-01Mainboard Lantai 3 L3-LUX-05 Illuminance / LUX 5 41.30 lux
12349 02/09/2026 14:54:27 MB-L3-01Mainboard Lantai 3 L3-AI-05 Analog Input 5 3.12 V
12350 02/09/2026 14:54:27 MB-L3-01Mainboard Lantai 3 L3-SHT-03-T SHT20 3 Temperature 31.80 °C
12351 02/09/2026 14:54:27 MB-L5-01Mainboard Lantai 5 L5-RAD-01 Radiation 1 2.00 W/m²
12352 02/09/2026 14:54:27 MB-L5-01Mainboard Lantai 5 L5-AI-03 Analog Input 3 3.05 V
12353 02/09/2026 14:54:27 MB-L3-01Mainboard Lantai 3 L3-SHT-02-T SHT20 2 Temperature 32.00 °C
12354 02/09/2026 14:54:27 MB-L5-01Mainboard Lantai 5 L5-AI-02 Analog Input 2 3.05 V
12355 02/09/2026 14:54:27 MB-L3-01Mainboard Lantai 3 L3-BGT-03 Black Globe Temperature 3 29.40 °C
12356 02/09/2026 14:54:27 MB-L5-01Mainboard Lantai 5 L5-AI-01 Analog Input 1 3.05 V
12357 02/09/2026 14:54:27 MB-L3-01Mainboard Lantai 3 L3-ST-02 Surface Temperature 2 30.20 °C
12358 02/09/2026 14:54:27 MB-L3-01Mainboard Lantai 3 L3-AI-06 Analog Input 6 3.12 V
12359 02/09/2026 14:54:27 MB-L3-01Mainboard Lantai 3 L3-LUX-06 Illuminance / LUX 6 51.60 lux
12360 02/09/2026 14:54:27 MB-L3-01Mainboard Lantai 3 L3-AI-01 Analog Input 1 3.12 V
12361 02/09/2026 14:54:25 MB-L5-01Mainboard Lantai 5 L5-SHT-01-RH SHT20 1 Humidity 48.30 %RH
12362 02/09/2026 14:54:25 MB-L3-01Mainboard Lantai 3 L3-HFT-02 Heat Flow Temperature 2 29.20 °C
12363 02/09/2026 14:54:25 MB-L3-01Mainboard Lantai 3 L3-SHT-01-T SHT20 1 Temperature 32.10 °C
12364 02/09/2026 14:54:25 MB-L5-01Mainboard Lantai 5 L5-HFT-01 Heat Flow Temperature 1 30.30 °C
12365 02/09/2026 14:54:25 MB-L5-01Mainboard Lantai 5 L5-LUX-01 Illuminance / LUX 1 282.00 lux
12366 02/09/2026 14:54:25 MB-L5-01Mainboard Lantai 5 L5-LUX-06 Illuminance / LUX 6 338.70 lux
12367 02/09/2026 14:54:25 MB-L5-01Mainboard Lantai 5 L5-ST-02 Surface Temperature 2 30.70 °C
12368 02/09/2026 14:54:25 MB-L3-01Mainboard Lantai 3 L3-LUX-02 Illuminance / LUX 2 50.00 lux
12369 02/09/2026 14:54:25 MB-L3-01Mainboard Lantai 3 L3-SHT-01-RH SHT20 1 Humidity 48.60 %RH
12370 02/09/2026 14:54:25 MB-L3-01Mainboard Lantai 3 L3-AI-03 Analog Input 3 3.12 V
12371 02/09/2026 14:54:25 MB-L5-01Mainboard Lantai 5 L5-LUX-02 Illuminance / LUX 2 207.60 lux
12372 02/09/2026 14:54:25 MB-L5-01Mainboard Lantai 5 L5-ST-01 Surface Temperature 1 30.30 °C
12373 02/09/2026 14:54:25 MB-L3-01Mainboard Lantai 3 L3-SHT-02-RH SHT20 2 Humidity 48.30 %RH
12374 02/09/2026 14:54:25 MB-L3-01Mainboard Lantai 3 L3-BGT-01 Black Globe Temperature 1 29.80 °C
12375 02/09/2026 14:54:25 MB-L5-01Mainboard Lantai 5 L5-RAD-02 Radiation 2 2.00 W/m²
12376 02/09/2026 14:54:25 MB-L3-01Mainboard Lantai 3 L3-LUX-01 Illuminance / LUX 1 50.20 lux
12377 02/09/2026 14:54:25 MB-L3-01Mainboard Lantai 3 L3-RAD-02 Radiation 2 2.00 W/m²
12378 02/09/2026 14:54:25 MB-L5-01Mainboard Lantai 5 L5-AI-06 Analog Input 6 3.05 V
12379 02/09/2026 14:54:25 MB-L3-01Mainboard Lantai 3 L3-LUX-03 Illuminance / LUX 3 164.00 lux
12380 02/09/2026 14:54:25 MB-L5-01Mainboard Lantai 5 L5-SHT-02-RH SHT20 2 Humidity 48.30 %RH
12381 02/09/2026 14:54:25 MB-L3-01Mainboard Lantai 3 L3-AI-04 Analog Input 4 3.12 V
12382 02/09/2026 14:54:25 MB-L5-01Mainboard Lantai 5 L5-LUX-04 Illuminance / LUX 4 313.50 lux
12383 02/09/2026 14:54:25 MB-L3-01Mainboard Lantai 3 L3-BGT-02 Black Globe Temperature 2 29.80 °C
12384 02/09/2026 14:54:25 MB-L3-01Mainboard Lantai 3 L3-RAD-01 Radiation 1 2.00 W/m²
12385 02/09/2026 14:54:25 MB-L5-01Mainboard Lantai 5 L5-AI-05 Analog Input 5 3.05 V
12386 02/09/2026 14:54:25 MB-L5-01Mainboard Lantai 5 L5-SHT-03-T SHT20 3 Temperature 32.10 °C
12387 02/09/2026 14:54:25 MB-L5-01Mainboard Lantai 5 L5-SHT-01-T SHT20 1 Temperature 32.30 °C
12388 02/09/2026 14:54:25 MB-L3-01Mainboard Lantai 3 L3-SHT-03-RH SHT20 3 Humidity 49.10 %RH
12389 02/09/2026 14:54:25 MB-L5-01Mainboard Lantai 5 L5-SHT-02-T SHT20 2 Temperature 32.20 °C
12390 02/09/2026 14:54:25 MB-L5-01Mainboard Lantai 5 L5-SHT-03-RH SHT20 3 Humidity 48.80 %RH
12391 02/09/2026 14:54:25 MB-L5-01Mainboard Lantai 5 L5-AI-04 Analog Input 4 3.05 V
12392 02/09/2026 14:54:25 MB-L3-01Mainboard Lantai 3 L3-ST-01 Surface Temperature 1 30.00 °C
12393 02/09/2026 14:54:25 MB-L3-01Mainboard Lantai 3 L3-LUX-05 Illuminance / LUX 5 42.60 lux
12394 02/09/2026 14:54:25 MB-L3-01Mainboard Lantai 3 L3-AI-05 Analog Input 5 3.12 V
12395 02/09/2026 14:54:25 MB-L3-01Mainboard Lantai 3 L3-SHT-03-T SHT20 3 Temperature 31.80 °C
12396 02/09/2026 14:54:25 MB-L5-01Mainboard Lantai 5 L5-RAD-01 Radiation 1 2.00 W/m²
12397 02/09/2026 14:54:25 MB-L5-01Mainboard Lantai 5 L5-AI-03 Analog Input 3 3.05 V
12398 02/09/2026 14:54:25 MB-L3-01Mainboard Lantai 3 L3-SHT-02-T SHT20 2 Temperature 32.00 °C
12399 02/09/2026 14:54:25 MB-L5-01Mainboard Lantai 5 L5-AI-02 Analog Input 2 3.05 V
12400 02/09/2026 14:54:25 MB-L3-01Mainboard Lantai 3 L3-BGT-03 Black Globe Temperature 3 29.40 °C
Menampilkan maksimal 100 data per halaman